Radar

TAFs

KDTW 042107Z 0421/0524 20015G25KT P6SM SCT250
   FM042300 20013KT P6SM SCT150 BKN250 WS008/24045KT
   FM051000 21013KT P6SM BKN015 OVC035 WS008/24040KT
   FM051400 23015G25KT P6SM OVC015
KCLE 042058Z 0421/0524 19015G25KT P6SM SKC
   FM050300 21014G22KT P6SM BKN250
   FM051500 21017G30KT P6SM BKN045
   FM052000 22013G22KT P6SM OVC025
KJXN 041922Z 0419/0518 18012G22KT P6SM SCT250
   FM042100 21015G25KT P6SM SCT250
   FM042300 21012KT P6SM BKN200
   FM050500 22012KT P6SM BKN150 WS020/25050KT
   FM051500 22010KT P6SM OVC025
   FM051700 23009KT P6SM OVC015
KFDY 041742Z 0418/0518 20019G28KT P6SM SKC
   FM042300 21015G25KT P6SM BKN250
   FM051500 22018G29KT P6SM OVC035
   FM051700 22016G28KT P6SM OVC025
KTOL 041742Z 0418/0518 21017G27KT P6SM SKC
   FM042200 21012G22KT P6SM BKN250
   FM051500 22014G26KT P6SM OVC035
KFWA 041730Z 0418/0518 20015G25KT P6SM SCT250
   FM050100 21015KT P6SM BKN200 WS020/24055KT
   FM051500 22012G20KT P6SM OVC010

METARs

KJXN 042256Z 19009KT 10SM CLR 00/M07 A3000 RMK AO2 SLP174 T00001072 $
KDUH 042255Z AUTO 21006G15KT 10SM CLR 03/M05 A3006 RMK AO2 T00301054
KFWA 042254Z 22012KT 10SM BKN250 02/M04 A3007 RMK AO2 SLP192 T00221039
KDTW 042253Z 21009KT 10SM OVC180 00/M07 A3006 RMK AO2 SLP188 T00001067
KFDY 042253Z AUTO 20009KT 10SM CLR 03/M06 A3008 RMK AO2 SLP194 T00281056
KTDZ 042253Z AUTO 22009KT 10SM CLR 03/M04 A3008 RMK AO2 SLP195 T00331044
KTOL 042252Z 21009G17KT 10SM CLR 03/M06 A3006 RMK AO2 SLP189 T00331056
KCLE 042251Z 19010KT 10SM BKN180 02/M12 A3010 RMK AO2 SLP219 T00221117

Satellite

TFRs